createdAt,value
2022-09-13T11:32:50.031Z,29.47
2022-09-13T11:35:38.483Z,29.54
2022-09-13T11:38:47.008Z,28.62
2022-09-13T11:41:38.492Z,28.95
2022-09-13T11:44:28.656Z,29.93
2022-09-13T11:47:04.765Z,30.03
2022-09-13T11:49:59.000Z,30.09
2022-09-13T11:52:55.791Z,30.32
2022-09-13T11:55:33.542Z,29.78
2022-09-13T11:58:05.067Z,29.41
2022-09-13T12:00:53.348Z,28.77
2022-09-13T12:03:26.338Z,29.75
2022-09-13T12:06:12.543Z,29.50
2022-09-13T12:08:50.869Z,28.98
2022-09-13T12:11:35.925Z,29.00
2022-09-13T12:14:12.056Z,27.44
2022-09-13T12:16:42.998Z,28.44
2022-09-13T12:19:57.230Z,28.43
2022-09-13T12:22:30.997Z,27.60
2022-09-13T12:25:04.071Z,27.68
2022-09-13T12:28:06.156Z,28.87
2022-09-13T12:30:48.959Z,28.31
2022-09-13T12:33:16.459Z,28.52
2022-09-13T12:36:15.136Z,28.31
2022-09-13T12:39:12.307Z,27.94
2022-09-13T12:41:56.975Z,28.15
2022-09-13T12:44:43.409Z,27.70
2022-09-13T12:47:34.218Z,27.60
2022-09-13T12:53:27.993Z,28.21
2022-09-13T12:56:24.447Z,28.17
2022-09-13T12:59:10.032Z,28.77
2022-09-13T13:01:37.573Z,28.75
2022-09-13T13:04:13.883Z,28.72
2022-09-13T13:06:52.522Z,28.23
2022-09-13T13:09:28.479Z,28.81
2022-09-13T13:11:58.378Z,28.84
2022-09-13T13:14:46.096Z,28.93
2022-09-13T13:17:34.782Z,28.92
2022-09-13T13:20:22.042Z,28.34
2022-09-13T13:22:50.110Z,28.55
2022-09-13T13:25:40.711Z,28.21
2022-09-13T13:28:44.902Z,27.91
2022-09-13T13:31:24.748Z,27.75
2022-09-13T13:34:13.415Z,26.78
2022-09-13T13:36:39.991Z,27.67
2022-09-13T13:39:12.468Z,27.70
2022-09-13T13:42:03.570Z,26.95
2022-09-13T13:44:31.723Z,27.66
2022-09-13T13:47:07.417Z,27.53
2022-09-13T13:49:38.528Z,27.92
2022-09-13T13:52:15.664Z,27.77
2022-09-13T13:54:42.465Z,28.26
2022-09-13T13:57:29.906Z,27.29
2022-09-13T14:00:16.058Z,28.93
2022-09-13T14:02:49.376Z,29.24
2022-09-13T14:05:53.254Z,29.45
2022-09-13T14:08:29.416Z,29.52
2022-09-13T14:11:23.114Z,29.29
2022-09-13T14:14:11.253Z,29.53
2022-09-13T14:16:53.078Z,29.21
2022-09-13T14:19:35.659Z,28.35
2022-09-13T14:22:13.502Z,28.67
2022-09-13T14:24:48.898Z,28.86
2022-09-13T14:27:27.906Z,28.63
2022-09-13T14:29:58.885Z,25.47
2022-09-13T14:32:37.163Z,29.17
2022-09-13T14:35:29.922Z,29.07
2022-09-13T14:38:11.881Z,29.00
2022-09-13T14:40:39.105Z,29.70
2022-09-13T14:43:23.682Z,29.73
2022-09-13T14:46:27.146Z,29.37
2022-09-13T14:49:04.915Z,28.24
2022-09-13T14:51:42.489Z,29.28
2022-09-13T14:54:35.064Z,29.72
2022-09-13T14:57:03.760Z,29.27
2022-09-13T14:59:41.341Z,29.84
2022-09-13T15:02:27.010Z,29.13
2022-09-13T15:04:57.659Z,28.02
2022-09-13T15:07:31.863Z,29.11
2022-09-13T15:10:07.392Z,28.84
2022-09-13T15:12:35.319Z,28.01
2022-09-13T15:15:20.160Z,28.39
2022-09-13T15:17:54.046Z,28.26
2022-09-13T15:20:22.365Z,27.07
2022-09-13T15:22:53.742Z,28.05
2022-09-13T15:25:29.373Z,27.55
2022-09-13T15:27:57.776Z,27.78
2022-09-13T15:30:37.989Z,27.13
2022-09-13T15:33:11.552Z,27.57
2022-09-13T15:35:46.197Z,26.44
2022-09-13T15:38:17.826Z,26.18
2022-09-13T15:41:01.794Z,27.27
2022-09-13T15:43:29.734Z,26.98
2022-09-13T15:45:57.781Z,26.02
2022-09-13T15:48:35.383Z,26.97
2022-09-13T15:51:13.515Z,26.61
2022-09-13T15:53:42.451Z,26.17
2022-09-13T15:56:12.888Z,26.67
2022-09-13T15:58:39.649Z,26.53
2022-09-13T16:01:06.769Z,25.55
2022-09-13T16:03:33.649Z,24.63
2022-09-13T16:06:00.390Z,26.07
2022-09-13T16:08:27.004Z,25.61
2022-09-13T16:10:53.576Z,25.51
2022-09-13T16:13:20.352Z,25.99
2022-09-13T16:15:47.032Z,25.68
2022-09-13T16:18:16.284Z,25.22
2022-09-13T16:20:44.031Z,25.42
2022-09-13T16:23:11.705Z,25.05
2022-09-13T16:25:38.798Z,25.61
2022-09-13T16:28:06.878Z,25.54
2022-09-13T16:30:33.853Z,25.07
2022-09-13T16:33:00.738Z,25.42
2022-09-13T16:35:30.793Z,24.99
2022-09-13T16:37:57.633Z,24.05
2022-09-13T16:40:24.265Z,24.22
2022-09-13T16:42:51.734Z,24.17
2022-09-13T16:45:18.544Z,25.04
2022-09-13T16:47:45.128Z,23.24
2022-09-13T16:50:11.929Z,24.32
2022-09-13T16:52:39.063Z,24.76
2022-09-13T16:55:06.249Z,23.68
2022-09-13T16:57:33.473Z,24.06
2022-09-13T17:00:00.542Z,23.58
2022-09-13T17:02:27.960Z,24.34
2022-09-13T17:04:57.359Z,24.24
2022-09-13T17:07:24.002Z,24.10
2022-09-13T17:09:50.644Z,23.98
2022-09-13T17:12:17.887Z,21.53
2022-09-13T17:14:47.754Z,22.46
2022-09-13T17:17:20.325Z,23.41
2022-09-13T17:19:47.577Z,22.16
2022-09-13T17:22:14.473Z,22.53
2022-09-13T17:24:41.633Z,22.73
2022-09-13T17:27:08.557Z,23.24
2022-09-13T17:29:36.032Z,22.95
2022-09-13T17:32:05.845Z,22.37
2022-09-13T17:34:34.620Z,23.02
2022-09-13T17:37:03.584Z,22.22
2022-09-13T17:39:31.014Z,22.37
2022-09-13T17:41:58.137Z,22.35
2022-09-13T17:44:25.133Z,22.26
2022-09-13T17:46:51.810Z,22.54
2022-09-13T17:49:18.658Z,21.95
2022-09-13T17:51:45.281Z,22.12
2022-09-13T17:54:12.396Z,22.26
2022-09-13T17:56:54.742Z,21.50
2022-09-13T17:59:22.788Z,17.57
2022-09-13T18:01:52.720Z,21.11
2022-09-13T18:04:24.258Z,21.65
2022-09-13T18:06:52.455Z,20.98
2022-09-13T18:09:20.047Z,20.29
2022-09-13T18:11:46.852Z,20.67
2022-09-13T18:14:16.136Z,21.02
2022-09-13T18:16:43.599Z,21.31
2022-09-13T18:19:11.604Z,21.26
2022-09-13T18:21:38.806Z,19.74
2022-09-13T18:24:06.748Z,20.27
2022-09-13T18:26:34.161Z,20.39
2022-09-13T18:29:04.160Z,19.26
2022-09-13T18:31:32.476Z,19.50
2022-09-13T18:34:01.754Z,20.78
2022-09-13T18:36:29.837Z,20.35
2022-09-13T18:38:58.874Z,20.60
2022-09-13T18:41:30.220Z,20.31
2022-09-13T18:43:57.404Z,20.03
2022-09-13T18:46:26.455Z,19.44
2022-09-13T18:48:55.292Z,19.80
2022-09-13T18:51:24.652Z,19.60
2022-09-13T18:53:51.969Z,20.06
2022-09-13T18:56:21.150Z,19.34
2022-09-13T18:58:49.032Z,18.35
2022-09-13T19:01:16.971Z,20.02
2022-09-13T19:03:56.364Z,19.98
2022-09-13T19:06:25.574Z,19.86
2022-09-13T19:08:54.122Z,18.36
2022-09-13T19:11:45.160Z,19.64
2022-09-13T19:14:19.285Z,19.81
2022-09-13T19:16:47.358Z,19.21
2022-09-13T19:19:14.438Z,19.84
2022-09-13T19:21:41.816Z,19.86
2022-09-13T19:24:14.849Z,19.04
2022-09-13T19:26:46.134Z,19.45
2022-09-13T19:29:14.933Z,19.35
2022-09-13T19:31:44.601Z,19.56
2022-09-13T19:34:12.353Z,19.19
2022-09-13T19:36:40.274Z,19.81
2022-09-13T19:39:07.610Z,19.25
2022-09-13T19:41:34.798Z,19.39
2022-09-13T19:44:02.465Z,18.62
2022-09-13T19:46:32.131Z,19.70
2022-09-13T19:49:00.615Z,19.31
2022-09-13T19:51:36.175Z,18.71
2022-09-13T19:54:04.256Z,19.66
2022-09-13T19:56:36.093Z,18.46
2022-09-13T19:59:03.821Z,19.56
2022-09-13T20:01:34.418Z,19.35
2022-09-13T20:04:04.656Z,18.66
2022-09-13T20:06:37.498Z,19.33
2022-09-13T20:09:05.571Z,19.52
2022-09-13T20:11:33.203Z,18.32
2022-09-13T20:14:00.757Z,19.12
2022-09-13T20:16:36.200Z,19.23
2022-09-13T20:19:13.740Z,19.17
2022-09-13T20:21:50.474Z,19.13
2022-09-13T20:24:18.773Z,19.06
2022-09-13T20:26:45.964Z,18.58
2022-09-13T20:29:14.924Z,17.89
2022-09-13T20:31:41.821Z,18.45
2022-09-13T20:34:11.114Z,19.02
2022-09-13T20:36:38.451Z,19.02
2022-09-13T20:39:06.435Z,17.78
2022-09-13T20:41:34.492Z,19.01
2022-09-13T20:44:01.474Z,18.72
2022-09-13T20:46:31.782Z,18.86
2022-09-13T20:48:58.668Z,18.85
2022-09-13T20:51:25.643Z,18.61
2022-09-13T20:53:57.361Z,18.78
2022-09-13T20:56:24.618Z,18.26
2022-09-13T20:58:57.313Z,18.86
2022-09-13T21:01:26.427Z,18.84
2022-09-13T21:03:54.866Z,17.23
2022-09-13T21:06:25.278Z,18.05
2022-09-13T21:08:52.707Z,18.84
2022-09-13T21:11:33.338Z,18.25
2022-09-13T21:14:09.112Z,15.99
2022-09-13T21:16:45.008Z,18.27
2022-09-13T21:19:12.214Z,18.93
2022-09-13T21:21:40.981Z,18.94
2022-09-13T21:24:11.191Z,18.92
2022-09-13T21:26:43.303Z,18.97
2022-09-13T21:29:11.440Z,19.01
2022-09-13T21:31:38.907Z,18.65
2022-09-13T21:34:14.586Z,18.97
2022-09-13T21:36:42.802Z,18.98
2022-09-13T21:39:10.131Z,18.35
2022-09-13T21:41:37.359Z,17.80
2022-09-13T21:44:04.540Z,18.86
2022-09-13T21:46:34.467Z,18.23
2022-09-13T21:49:03.828Z,18.48
2022-09-13T21:51:33.501Z,18.59
2022-09-13T21:54:02.204Z,18.78
2022-09-13T21:56:31.148Z,18.77
2022-09-13T21:59:00.160Z,17.44
2022-09-13T22:01:35.457Z,18.83
2022-09-13T22:04:02.898Z,17.11
2022-09-13T22:06:33.669Z,18.01
2022-09-13T22:09:05.338Z,18.24
2022-09-13T22:11:38.531Z,18.79
2022-09-13T22:14:09.723Z,17.37
2022-09-13T22:16:39.039Z,18.65
2022-09-13T22:19:15.730Z,18.49
2022-09-13T22:21:45.655Z,17.48
2022-09-13T22:24:18.863Z,18.57
2022-09-13T22:26:46.966Z,18.48
2022-09-13T22:29:15.175Z,18.41
2022-09-13T22:31:45.249Z,18.55
2022-09-13T22:34:17.381Z,18.56
2022-09-13T22:36:44.830Z,18.52
2022-09-13T22:39:13.332Z,18.02
2022-09-13T22:41:40.893Z,18.55
2022-09-13T22:44:08.115Z,17.91
2022-09-13T22:46:37.985Z,18.10
2022-09-13T22:49:05.580Z,18.17
2022-09-13T22:51:33.671Z,17.88
2022-09-13T22:54:04.832Z,18.34
2022-09-13T22:56:35.456Z,18.37
2022-09-13T22:59:10.916Z,14.82
2022-09-13T23:01:38.118Z,17.16
2022-09-13T23:04:05.524Z,16.98
2022-09-13T23:06:32.421Z,17.71
2022-09-13T23:09:01.413Z,18.27
2022-09-13T23:11:30.759Z,17.05
2022-09-13T23:14:01.646Z,18.27
2022-09-13T23:16:32.212Z,17.42
2022-09-13T23:19:00.094Z,18.23
2022-09-13T23:21:29.822Z,17.87
2022-09-13T23:23:57.726Z,17.82
2022-09-13T23:26:24.453Z,17.53
2022-09-13T23:28:57.249Z,18.17
2022-09-13T23:31:29.500Z,17.01
2022-09-13T23:33:59.652Z,18.13
2022-09-13T23:36:29.525Z,18.10
2022-09-13T23:38:59.162Z,17.37
2022-09-13T23:41:26.926Z,17.71
2022-09-13T23:43:54.152Z,18.13
2022-09-13T23:46:21.251Z,17.24
2022-09-13T23:48:48.561Z,18.17
2022-09-13T23:51:21.055Z,18.16
2022-09-13T23:53:47.869Z,16.71
2022-09-13T23:56:14.562Z,15.39
2022-09-13T23:58:41.377Z,18.09
